sensor_id;sensor_type;location;lat;lon;timestamp;P1;durP1;ratioP1;P2;durP2;ratioP2
27223;SDS011;14965;50.660;13.226;2022-09-13T00:00:17;12.35;;;7.18;;
27223;SDS011;14965;50.660;13.226;2022-09-13T00:02:43;8.77;;;6.60;;
27223;SDS011;14965;50.660;13.226;2022-09-13T00:05:10;9.85;;;6.70;;
27223;SDS011;14965;50.660;13.226;2022-09-13T00:07:36;12.68;;;7.30;;
27223;SDS011;14965;50.660;13.226;2022-09-13T00:10:02;11.63;;;7.22;;
27223;SDS011;14965;50.660;13.226;2022-09-13T00:12:28;9.05;;;7.13;;
27223;SDS011;14965;50.660;13.226;2022-09-13T00:14:54;9.40;;;6.78;;
27223;SDS011;14965;50.660;13.226;2022-09-13T00:17:20;8.68;;;7.10;;
27223;SDS011;14965;50.660;13.226;2022-09-13T00:19:46;10.02;;;6.90;;
27223;SDS011;14965;50.660;13.226;2022-09-13T00:22:13;14.55;;;7.32;;
27223;SDS011;14965;50.660;13.226;2022-09-13T00:24:39;12.63;;;7.35;;
27223;SDS011;14965;50.660;13.226;2022-09-13T00:27:05;9.65;;;6.63;;
27223;SDS011;14965;50.660;13.226;2022-09-13T00:29:31;10.40;;;6.85;;
27223;SDS011;14965;50.660;13.226;2022-09-13T00:31:56;12.10;;;6.97;;
27223;SDS011;14965;50.660;13.226;2022-09-13T00:34:22;9.35;;;7.00;;
27223;SDS011;14965;50.660;13.226;2022-09-13T00:36:48;12.60;;;7.15;;
27223;SDS011;14965;50.660;13.226;2022-09-13T00:39:15;11.48;;;7.05;;
27223;SDS011;14965;50.660;13.226;2022-09-13T00:41:41;8.98;;;6.50;;
27223;SDS011;14965;50.660;13.226;2022-09-13T00:47:17;10.70;;;6.82;;
27223;SDS011;14965;50.660;13.226;2022-09-13T00:49:52;12.10;;;6.45;;
27223;SDS011;14965;50.660;13.226;2022-09-13T00:52:24;9.98;;;6.85;;
27223;SDS011;14965;50.660;13.226;2022-09-13T00:54:57;10.88;;;6.90;;
27223;SDS011;14965;50.660;13.226;2022-09-13T00:57:29;8.65;;;6.72;;
27223;SDS011;14965;50.660;13.226;2022-09-13T00:59:59;10.85;;;7.13;;
27223;SDS011;14965;50.660;13.226;2022-09-13T01:02:32;9.68;;;7.47;;
27223;SDS011;14965;50.660;13.226;2022-09-13T01:04:58;11.45;;;7.50;;
27223;SDS011;14965;50.660;13.226;2022-09-13T01:07:24;10.68;;;7.28;;
27223;SDS011;14965;50.660;13.226;2022-09-13T01:09:50;8.98;;;6.35;;
27223;SDS011;14965;50.660;13.226;2022-09-13T01:12:21;9.25;;;7.18;;
27223;SDS011;14965;50.660;13.226;2022-09-13T01:14:59;10.70;;;6.90;;
27223;SDS011;14965;50.660;13.226;2022-09-13T01:17:29;10.80;;;7.53;;
27223;SDS011;14965;50.660;13.226;2022-09-13T01:19:58;11.40;;;6.65;;
27223;SDS011;14965;50.660;13.226;2022-09-13T01:22:38;12.43;;;7.00;;
27223;SDS011;14965;50.660;13.226;2022-09-13T01:29:02;11.00;;;6.83;;
27223;SDS011;14965;50.660;13.226;2022-09-13T01:32:03;8.40;;;6.50;;
27223;SDS011;14965;50.660;13.226;2022-09-13T01:34:43;11.43;;;7.07;;
27223;SDS011;14965;50.660;13.226;2022-09-13T01:37:29;10.20;;;6.95;;
27223;SDS011;14965;50.660;13.226;2022-09-13T01:40:11;11.95;;;7.50;;
27223;SDS011;14965;50.660;13.226;2022-09-13T01:42:57;11.88;;;7.18;;
27223;SDS011;14965;50.660;13.226;2022-09-13T01:45:45;13.23;;;7.80;;
27223;SDS011;14965;50.660;13.226;2022-09-13T01:48:22;10.50;;;7.10;;
27223;SDS011;14965;50.660;13.226;2022-09-13T01:50:59;9.88;;;7.28;;
27223;SDS011;14965;50.660;13.226;2022-09-13T01:53:33;14.48;;;7.65;;
27223;SDS011;14965;50.660;13.226;2022-09-13T01:56:11;10.90;;;7.13;;
27223;SDS011;14965;50.660;13.226;2022-09-13T01:58:52;9.35;;;7.13;;
27223;SDS011;14965;50.660;13.226;2022-09-13T02:01:24;11.38;;;6.90;;
27223;SDS011;14965;50.660;13.226;2022-09-13T02:03:58;10.23;;;6.95;;
27223;SDS011;14965;50.660;13.226;2022-09-13T02:06:30;10.68;;;6.38;;
27223;SDS011;14965;50.660;13.226;2022-09-13T02:09:03;9.90;;;7.15;;
27223;SDS011;14965;50.660;13.226;2022-09-13T02:11:35;10.95;;;7.43;;
27223;SDS011;14965;50.660;13.226;2022-09-13T02:14:06;10.98;;;6.82;;
27223;SDS011;14965;50.660;13.226;2022-09-13T02:16:39;12.02;;;7.00;;
27223;SDS011;14965;50.660;13.226;2022-09-13T02:19:14;11.68;;;6.95;;
27223;SDS011;14965;50.660;13.226;2022-09-13T02:21:46;11.70;;;6.57;;
27223;SDS011;14965;50.660;13.226;2022-09-13T02:24:20;8.63;;;6.40;;
27223;SDS011;14965;50.660;13.226;2022-09-13T02:26:53;9.38;;;6.60;;
27223;SDS011;14965;50.660;13.226;2022-09-13T02:29:26;7.18;;;5.78;;
27223;SDS011;14965;50.660;13.226;2022-09-13T02:34:30;11.90;;;6.38;;
27223;SDS011;14965;50.660;13.226;2022-09-13T02:37:03;8.95;;;6.18;;
27223;SDS011;14965;50.660;13.226;2022-09-13T02:39:33;9.45;;;6.30;;
27223;SDS011;14965;50.660;13.226;2022-09-13T02:42:05;10.35;;;6.40;;
27223;SDS011;14965;50.660;13.226;2022-09-13T02:44:39;9.65;;;6.10;;
27223;SDS011;14965;50.660;13.226;2022-09-13T02:47:10;7.68;;;5.57;;
27223;SDS011;14965;50.660;13.226;2022-09-13T02:49:56;10.02;;;6.25;;
27223;SDS011;14965;50.660;13.226;2022-09-13T02:52:34;8.68;;;5.93;;
27223;SDS011;14965;50.660;13.226;2022-09-13T02:55:13;10.27;;;6.18;;
27223;SDS011;14965;50.660;13.226;2022-09-13T02:57:47;8.90;;;6.40;;
27223;SDS011;14965;50.660;13.226;2022-09-13T03:00:24;8.27;;;6.00;;
27223;SDS011;14965;50.660;13.226;2022-09-13T03:02:50;10.02;;;5.47;;
27223;SDS011;14965;50.660;13.226;2022-09-13T03:05:21;6.85;;;5.47;;
27223;SDS011;14965;50.660;13.226;2022-09-13T03:07:47;8.45;;;5.82;;
27223;SDS011;14965;50.660;13.226;2022-09-13T03:10:15;9.10;;;6.07;;
27223;SDS011;14965;50.660;13.226;2022-09-13T03:13:04;9.07;;;5.88;;
27223;SDS011;14965;50.660;13.226;2022-09-13T03:15:56;9.00;;;6.05;;
27223;SDS011;14965;50.660;13.226;2022-09-13T03:18:37;7.35;;;5.60;;
27223;SDS011;14965;50.660;13.226;2022-09-13T03:21:21;8.45;;;6.35;;
27223;SDS011;14965;50.660;13.226;2022-09-13T03:24:08;10.48;;;6.70;;
27223;SDS011;14965;50.660;13.226;2022-09-13T03:26:49;10.10;;;6.10;;
27223;SDS011;14965;50.660;13.226;2022-09-13T03:29:33;7.72;;;5.88;;
27223;SDS011;14965;50.660;13.226;2022-09-13T03:32:15;8.90;;;5.75;;
27223;SDS011;14965;50.660;13.226;2022-09-13T03:34:57;10.57;;;6.38;;
27223;SDS011;14965;50.660;13.226;2022-09-13T03:37:40;11.27;;;6.75;;
27223;SDS011;14965;50.660;13.226;2022-09-13T03:40:21;9.70;;;6.60;;
27223;SDS011;14965;50.660;13.226;2022-09-13T03:43:03;12.93;;;6.47;;
27223;SDS011;14965;50.660;13.226;2022-09-13T03:45:37;10.95;;;7.50;;
27223;SDS011;14965;50.660;13.226;2022-09-13T03:48:09;11.57;;;6.65;;
27223;SDS011;14965;50.660;13.226;2022-09-13T03:50:37;11.88;;;6.95;;
27223;SDS011;14965;50.660;13.226;2022-09-13T03:53:06;13.75;;;6.80;;
27223;SDS011;14965;50.660;13.226;2022-09-13T03:55:37;11.27;;;8.05;;
27223;SDS011;14965;50.660;13.226;2022-09-13T03:58:16;12.98;;;8.18;;
27223;SDS011;14965;50.660;13.226;2022-09-13T04:00:44;11.25;;;7.82;;
27223;SDS011;14965;50.660;13.226;2022-09-13T04:03:11;12.48;;;8.27;;
27223;SDS011;14965;50.660;13.226;2022-09-13T04:05:38;9.80;;;7.47;;
27223;SDS011;14965;50.660;13.226;2022-09-13T04:08:06;12.38;;;8.60;;
27223;SDS011;14965;50.660;13.226;2022-09-13T04:10:32;14.68;;;8.70;;
27223;SDS011;14965;50.660;13.226;2022-09-13T04:13:00;14.25;;;7.90;;
27223;SDS011;14965;50.660;13.226;2022-09-13T04:15:27;11.23;;;7.95;;
27223;SDS011;14965;50.660;13.226;2022-09-13T04:17:54;10.40;;;7.85;;
27223;SDS011;14965;50.660;13.226;2022-09-13T04:20:20;11.25;;;8.32;;
27223;SDS011;14965;50.660;13.226;2022-09-13T04:22:49;12.18;;;8.05;;
27223;SDS011;14965;50.660;13.226;2022-09-13T04:25:17;12.05;;;8.48;;
27223;SDS011;14965;50.660;13.226;2022-09-13T04:27:44;12.60;;;8.90;;
27223;SDS011;14965;50.660;13.226;2022-09-13T04:30:10;10.35;;;8.13;;
27223;SDS011;14965;50.660;13.226;2022-09-13T04:32:37;11.73;;;8.48;;
27223;SDS011;14965;50.660;13.226;2022-09-13T04:35:03;13.88;;;8.18;;
27223;SDS011;14965;50.660;13.226;2022-09-13T04:37:30;9.52;;;7.85;;
27223;SDS011;14965;50.660;13.226;2022-09-13T04:39:55;13.38;;;8.45;;
27223;SDS011;14965;50.660;13.226;2022-09-13T04:42:22;11.48;;;8.05;;
27223;SDS011;14965;50.660;13.226;2022-09-13T04:44:48;12.38;;;8.77;;
27223;SDS011;14965;50.660;13.226;2022-09-13T04:47:14;11.90;;;8.30;;
27223;SDS011;14965;50.660;13.226;2022-09-13T04:49:40;14.40;;;8.20;;
27223;SDS011;14965;50.660;13.226;2022-09-13T04:52:06;9.63;;;7.68;;
27223;SDS011;14965;50.660;13.226;2022-09-13T04:54:32;11.52;;;8.70;;
27223;SDS011;14965;50.660;13.226;2022-09-13T04:56:57;11.40;;;8.15;;
27223;SDS011;14965;50.660;13.226;2022-09-13T04:59:25;11.90;;;8.18;;
27223;SDS011;14965;50.660;13.226;2022-09-13T05:01:50;12.05;;;8.07;;
27223;SDS011;14965;50.660;13.226;2022-09-13T05:04:16;11.30;;;8.45;;
27223;SDS011;14965;50.660;13.226;2022-09-13T05:06:42;11.02;;;8.18;;
27223;SDS011;14965;50.660;13.226;2022-09-13T05:09:09;12.25;;;8.52;;
27223;SDS011;14965;50.660;13.226;2022-09-13T05:11:38;13.05;;;8.18;;
27223;SDS011;14965;50.660;13.226;2022-09-13T05:14:04;12.43;;;8.85;;
27223;SDS011;14965;50.660;13.226;2022-09-13T05:16:32;12.05;;;8.60;;
27223;SDS011;14965;50.660;13.226;2022-09-13T05:18:58;9.77;;;8.18;;
27223;SDS011;14965;50.660;13.226;2022-09-13T05:21:25;10.82;;;8.60;;
27223;SDS011;14965;50.660;13.226;2022-09-13T05:23:51;11.65;;;8.20;;
27223;SDS011;14965;50.660;13.226;2022-09-13T05:26:19;11.68;;;7.68;;
27223;SDS011;14965;50.660;13.226;2022-09-13T05:28:46;11.32;;;8.13;;
27223;SDS011;14965;50.660;13.226;2022-09-13T05:31:14;13.45;;;7.63;;
27223;SDS011;14965;50.660;13.226;2022-09-13T05:33:44;10.25;;;7.90;;
27223;SDS011;14965;50.660;13.226;2022-09-13T05:36:16;9.80;;;7.40;;
27223;SDS011;14965;50.660;13.226;2022-09-13T05:38:42;10.00;;;7.82;;
27223;SDS011;14965;50.660;13.226;2022-09-13T05:41:08;16.95;;;7.43;;
27223;SDS011;14965;50.660;13.226;2022-09-13T05:43:34;10.20;;;7.55;;
27223;SDS011;14965;50.660;13.226;2022-09-13T05:46:01;9.15;;;6.57;;
27223;SDS011;14965;50.660;13.226;2022-09-13T05:48:30;9.20;;;6.90;;
27223;SDS011;14965;50.660;13.226;2022-09-13T05:51:04;10.80;;;7.20;;
27223;SDS011;14965;50.660;13.226;2022-09-13T05:53:31;11.70;;;7.15;;
27223;SDS011;14965;50.660;13.226;2022-09-13T05:55:58;10.38;;;6.65;;
27223;SDS011;14965;50.660;13.226;2022-09-13T05:58:24;12.80;;;7.20;;
27223;SDS011;14965;50.660;13.226;2022-09-13T06:00:51;11.32;;;6.75;;
27223;SDS011;14965;50.660;13.226;2022-09-13T06:03:18;9.75;;;7.25;;
27223;SDS011;14965;50.660;13.226;2022-09-13T06:05:43;10.27;;;7.03;;
27223;SDS011;14965;50.660;13.226;2022-09-13T06:08:11;9.35;;;6.43;;
27223;SDS011;14965;50.660;13.226;2022-09-13T06:10:37;8.70;;;6.72;;
27223;SDS011;14965;50.660;13.226;2022-09-13T06:13:03;9.23;;;7.03;;
27223;SDS011;14965;50.660;13.226;2022-09-13T06:15:28;8.70;;;6.30;;
27223;SDS011;14965;50.660;13.226;2022-09-13T06:17:54;7.55;;;6.10;;
27223;SDS011;14965;50.660;13.226;2022-09-13T06:20:20;8.55;;;6.00;;
27223;SDS011;14965;50.660;13.226;2022-09-13T06:22:46;7.25;;;5.82;;
27223;SDS011;14965;50.660;13.226;2022-09-13T06:25:13;10.15;;;6.63;;
27223;SDS011;14965;50.660;13.226;2022-09-13T06:27:39;8.80;;;6.70;;
27223;SDS011;14965;50.660;13.226;2022-09-13T06:30:06;7.70;;;5.78;;
27223;SDS011;14965;50.660;13.226;2022-09-13T06:32:33;10.43;;;6.32;;
27223;SDS011;14965;50.660;13.226;2022-09-13T06:34:59;8.15;;;6.28;;
27223;SDS011;14965;50.660;13.226;2022-09-13T06:37:25;8.00;;;5.55;;
27223;SDS011;14965;50.660;13.226;2022-09-13T06:39:51;7.35;;;6.00;;
27223;SDS011;14965;50.660;13.226;2022-09-13T06:42:18;9.32;;;5.90;;
27223;SDS011;14965;50.660;13.226;2022-09-13T06:44:44;8.02;;;5.60;;
27223;SDS011;14965;50.660;13.226;2022-09-13T06:47:10;8.15;;;5.70;;
27223;SDS011;14965;50.660;13.226;2022-09-13T06:49:35;9.10;;;5.50;;
27223;SDS011;14965;50.660;13.226;2022-09-13T06:52:02;6.07;;;4.97;;
27223;SDS011;14965;50.660;13.226;2022-09-13T06:54:27;7.63;;;5.60;;
27223;SDS011;14965;50.660;13.226;2022-09-13T06:56:53;8.68;;;5.95;;
27223;SDS011;14965;50.660;13.226;2022-09-13T06:59:20;8.95;;;6.65;;
27223;SDS011;14965;50.660;13.226;2022-09-13T07:01:47;8.10;;;5.95;;
27223;SDS011;14965;50.660;13.226;2022-09-13T07:04:13;6.57;;;5.18;;
27223;SDS011;14965;50.660;13.226;2022-09-13T07:06:41;6.75;;;5.35;;
27223;SDS011;14965;50.660;13.226;2022-09-13T07:09:10;7.95;;;5.13;;
27223;SDS011;14965;50.660;13.226;2022-09-13T07:11:39;8.82;;;5.32;;
27223;SDS011;14965;50.660;13.226;2022-09-13T07:14:06;6.82;;;5.45;;
27223;SDS011;14965;50.660;13.226;2022-09-13T07:16:35;8.93;;;5.38;;
27223;SDS011;14965;50.660;13.226;2022-09-13T07:19:03;9.57;;;5.55;;
27223;SDS011;14965;50.660;13.226;2022-09-13T07:21:31;5.50;;;4.70;;
27223;SDS011;14965;50.660;13.226;2022-09-13T07:23:59;6.70;;;4.75;;
27223;SDS011;14965;50.660;13.226;2022-09-13T07:26:26;6.47;;;5.00;;
27223;SDS011;14965;50.660;13.226;2022-09-13T07:28:53;7.20;;;4.90;;
27223;SDS011;14965;50.660;13.226;2022-09-13T07:31:21;5.35;;;4.82;;
27223;SDS011;14965;50.660;13.226;2022-09-13T07:33:53;7.32;;;5.45;;
27223;SDS011;14965;50.660;13.226;2022-09-13T07:36:21;5.82;;;4.78;;
27223;SDS011;14965;50.660;13.226;2022-09-13T07:38:48;5.43;;;4.70;;
27223;SDS011;14965;50.660;13.226;2022-09-13T07:41:15;5.45;;;4.50;;
27223;SDS011;14965;50.660;13.226;2022-09-13T07:43:43;6.07;;;4.38;;
27223;SDS011;14965;50.660;13.226;2022-09-13T07:46:10;5.13;;;4.63;;
27223;SDS011;14965;50.660;13.226;2022-09-13T07:51:08;6.55;;;5.15;;
27223;SDS011;14965;50.660;13.226;2022-09-13T07:53:36;8.23;;;4.65;;
27223;SDS011;14965;50.660;13.226;2022-09-13T07:56:05;5.53;;;4.30;;
27223;SDS011;14965;50.660;13.226;2022-09-13T07:58:33;7.57;;;4.22;;
27223;SDS011;14965;50.660;13.226;2022-09-13T08:03:30;5.95;;;4.78;;
27223;SDS011;14965;50.660;13.226;2022-09-13T08:05:57;7.10;;;4.57;;
27223;SDS011;14965;50.660;13.226;2022-09-13T08:08:24;6.13;;;4.40;;
27223;SDS011;14965;50.660;13.226;2022-09-13T08:10:50;6.57;;;4.32;;
27223;SDS011;14965;50.660;13.226;2022-09-13T08:13:16;5.28;;;4.20;;
27223;SDS011;14965;50.660;13.226;2022-09-13T08:15:41;4.82;;;3.97;;
27223;SDS011;14965;50.660;13.226;2022-09-13T08:18:07;5.32;;;4.45;;
27223;SDS011;14965;50.660;13.226;2022-09-13T08:20:34;7.50;;;4.05;;
27223;SDS011;14965;50.660;13.226;2022-09-13T08:23:00;5.82;;;4.30;;
27223;SDS011;14965;50.660;13.226;2022-09-13T08:25:28;4.82;;;3.60;;
27223;SDS011;14965;50.660;13.226;2022-09-13T08:27:53;5.57;;;3.80;;
27223;SDS011;14965;50.660;13.226;2022-09-13T08:30:19;5.05;;;4.10;;
27223;SDS011;14965;50.660;13.226;2022-09-13T08:32:48;4.68;;;4.20;;
27223;SDS011;14965;50.660;13.226;2022-09-13T08:35:14;5.60;;;3.92;;
27223;SDS011;14965;50.660;13.226;2022-09-13T08:37:40;6.40;;;4.50;;
27223;SDS011;14965;50.660;13.226;2022-09-13T08:40:06;7.07;;;4.50;;
27223;SDS011;14965;50.660;13.226;2022-09-13T08:42:46;5.45;;;4.60;;
27223;SDS011;14965;50.660;13.226;2022-09-13T08:45:25;6.88;;;5.07;;
27223;SDS011;14965;50.660;13.226;2022-09-13T08:47:51;11.07;;;5.55;;
27223;SDS011;14965;50.660;13.226;2022-09-13T08:50:24;7.45;;;6.30;;
27223;SDS011;14965;50.660;13.226;2022-09-13T08:52:57;6.93;;;5.70;;
27223;SDS011;14965;50.660;13.226;2022-09-13T08:55:42;7.95;;;5.97;;
27223;SDS011;14965;50.660;13.226;2022-09-13T08:58:27;7.63;;;5.57;;
27223;SDS011;14965;50.660;13.226;2022-09-13T09:01:19;7.10;;;5.88;;
27223;SDS011;14965;50.660;13.226;2022-09-13T09:04:01;7.47;;;5.78;;
27223;SDS011;14965;50.660;13.226;2022-09-13T09:06:39;7.82;;;5.65;;
27223;SDS011;14965;50.660;13.226;2022-09-13T09:09:07;7.05;;;5.90;;
27223;SDS011;14965;50.660;13.226;2022-09-13T09:11:41;8.23;;;6.05;;
27223;SDS011;14965;50.660;13.226;2022-09-13T09:14:19;10.65;;;5.75;;
27223;SDS011;14965;50.660;13.226;2022-09-13T09:16:54;6.90;;;5.18;;
27223;SDS011;14965;50.660;13.226;2022-09-13T09:19:27;8.30;;;5.70;;
27223;SDS011;14965;50.660;13.226;2022-09-13T09:22:00;6.13;;;4.95;;
27223;SDS011;14965;50.660;13.226;2022-09-13T09:24:34;6.30;;;5.07;;
27223;SDS011;14965;50.660;13.226;2022-09-13T09:27:07;8.10;;;4.95;;
27223;SDS011;14965;50.660;13.226;2022-09-13T09:29:41;5.47;;;4.53;;
27223;SDS011;14965;50.660;13.226;2022-09-13T09:32:13;6.50;;;4.82;;
27223;SDS011;14965;50.660;13.226;2022-09-13T09:34:59;6.70;;;4.85;;
27223;SDS011;14965;50.660;13.226;2022-09-13T09:37:40;7.75;;;4.80;;
27223;SDS011;14965;50.660;13.226;2022-09-13T09:40:14;7.65;;;5.00;;
27223;SDS011;14965;50.660;13.226;2022-09-13T09:42:41;6.63;;;5.03;;
27223;SDS011;14965;50.660;13.226;2022-09-13T09:45:21;6.13;;;4.75;;
27223;SDS011;14965;50.660;13.226;2022-09-13T09:47:52;5.65;;;4.65;;
27223;SDS011;14965;50.660;13.226;2022-09-13T09:50:23;6.57;;;4.50;;
27223;SDS011;14965;50.660;13.226;2022-09-13T09:52:55;6.80;;;4.55;;
27223;SDS011;14965;50.660;13.226;2022-09-13T09:55:28;8.50;;;4.50;;
27223;SDS011;14965;50.660;13.226;2022-09-13T10:00:25;6.22;;;4.20;;
27223;SDS011;14965;50.660;13.226;2022-09-13T10:02:56;6.38;;;4.47;;
27223;SDS011;14965;50.660;13.226;2022-09-13T10:05:24;6.32;;;4.00;;
27223;SDS011;14965;50.660;13.226;2022-09-13T10:07:52;5.20;;;4.15;;
27223;SDS011;14965;50.660;13.226;2022-09-13T10:10:23;4.93;;;4.00;;
27223;SDS011;14965;50.660;13.226;2022-09-13T10:12:58;5.97;;;3.97;;
27223;SDS011;14965;50.660;13.226;2022-09-13T10:15:26;6.70;;;4.13;;
27223;SDS011;14965;50.660;13.226;2022-09-13T10:18:04;4.07;;;3.53;;
27223;SDS011;14965;50.660;13.226;2022-09-13T10:20:41;5.93;;;2.97;;
27223;SDS011;14965;50.660;13.226;2022-09-13T10:23:24;4.63;;;3.53;;
27223;SDS011;14965;50.660;13.226;2022-09-13T10:25:54;4.25;;;2.92;;
27223;SDS011;14965;50.660;13.226;2022-09-13T10:28:35;4.50;;;3.25;;
27223;SDS011;14965;50.660;13.226;2022-09-13T10:31:10;3.50;;;3.00;;
27223;SDS011;14965;50.660;13.226;2022-09-13T10:33:40;3.95;;;3.10;;
27223;SDS011;14965;50.660;13.226;2022-09-13T10:36:12;4.28;;;3.35;;
27223;SDS011;14965;50.660;13.226;2022-09-13T10:38:44;4.75;;;3.35;;
27223;SDS011;14965;50.660;13.226;2022-09-13T10:41:22;3.47;;;3.17;;
27223;SDS011;14965;50.660;13.226;2022-09-13T10:43:55;3.70;;;3.20;;
27223;SDS011;14965;50.660;13.226;2022-09-13T10:46:25;8.45;;;3.05;;
27223;SDS011;14965;50.660;13.226;2022-09-13T10:48:54;6.13;;;2.97;;
27223;SDS011;14965;50.660;13.226;2022-09-13T10:51:27;3.28;;;2.97;;
27223;SDS011;14965;50.660;13.226;2022-09-13T10:54:08;3.65;;;2.75;;
27223;SDS011;14965;50.660;13.226;2022-09-13T10:56:43;4.68;;;3.10;;
27223;SDS011;14965;50.660;13.226;2022-09-13T10:59:13;5.72;;;3.35;;
27223;SDS011;14965;50.660;13.226;2022-09-13T11:01:45;3.60;;;3.30;;
27223;SDS011;14965;50.660;13.226;2022-09-13T11:05:00;4.43;;;3.25;;
27223;SDS011;14965;50.660;13.226;2022-09-13T11:10:58;4.43;;;2.90;;
27223;SDS011;14965;50.660;13.226;2022-09-13T11:13:38;3.50;;;2.88;;
27223;SDS011;14965;50.660;13.226;2022-09-13T11:16:29;4.97;;;3.00;;
27223;SDS011;14965;50.660;13.226;2022-09-13T11:19:17;3.40;;;3.08;;
27223;SDS011;14965;50.660;13.226;2022-09-13T11:22:17;3.88;;;2.60;;
27223;SDS011;14965;50.660;13.226;2022-09-13T11:27:59;4.35;;;2.80;;
27223;SDS011;14965;50.660;13.226;2022-09-13T11:30:40;3.83;;;3.08;;
27223;SDS011;14965;50.660;13.226;2022-09-13T11:33:40;4.88;;;3.10;;
27223;SDS011;14965;50.660;13.226;2022-09-13T11:36:32;4.03;;;2.67;;
27223;SDS011;14965;50.660;13.226;2022-09-13T11:39:23;5.13;;;3.00;;
27223;SDS011;14965;50.660;13.226;2022-09-13T11:42:02;5.03;;;3.08;;
27223;SDS011;14965;50.660;13.226;2022-09-13T11:47:55;4.25;;;2.90;;
27223;SDS011;14965;50.660;13.226;2022-09-13T11:50:45;6.65;;;2.80;;
27223;SDS011;14965;50.660;13.226;2022-09-13T11:53:34;4.38;;;2.85;;
27223;SDS011;14965;50.660;13.226;2022-09-13T11:56:18;7.10;;;2.90;;
27223;SDS011;14965;50.660;13.226;2022-09-13T11:58:52;4.50;;;3.00;;
27223;SDS011;14965;50.660;13.226;2022-09-13T12:01:27;3.58;;;3.00;;
27223;SDS011;14965;50.660;13.226;2022-09-13T12:04:01;3.03;;;2.60;;
27223;SDS011;14965;50.660;13.226;2022-09-13T12:06:35;4.10;;;2.70;;
27223;SDS011;14965;50.660;13.226;2022-09-13T12:09:11;4.05;;;2.60;;
27223;SDS011;14965;50.660;13.226;2022-09-13T12:11:44;4.07;;;2.90;;
27223;SDS011;14965;50.660;13.226;2022-09-13T12:14:19;6.25;;;2.85;;
27223;SDS011;14965;50.660;13.226;2022-09-13T12:16:50;5.88;;;2.70;;
27223;SDS011;14965;50.660;13.226;2022-09-13T12:19:22;3.00;;;2.70;;
27223;SDS011;14965;50.660;13.226;2022-09-13T12:21:54;2.45;;;2.25;;
27223;SDS011;14965;50.660;13.226;2022-09-13T12:24:27;2.85;;;2.00;;
27223;SDS011;14965;50.660;13.226;2022-09-13T12:27:03;4.72;;;2.33;;
27223;SDS011;14965;50.660;13.226;2022-09-13T12:29:38;1.90;;;1.80;;
27223;SDS011;14965;50.660;13.226;2022-09-13T12:32:11;3.08;;;2.15;;
27223;SDS011;14965;50.660;13.226;2022-09-13T12:34:41;3.05;;;1.67;;
27223;SDS011;14965;50.660;13.226;2022-09-13T12:37:21;3.55;;;1.48;;
27223;SDS011;14965;50.660;13.226;2022-09-13T12:40:36;2.08;;;1.65;;
27223;SDS011;14965;50.660;13.226;2022-09-13T12:43:29;2.55;;;1.70;;
27223;SDS011;14965;50.660;13.226;2022-09-13T12:46:53;2.05;;;1.85;;
27223;SDS011;14965;50.660;13.226;2022-09-13T12:49:49;4.25;;;1.70;;
27223;SDS011;14965;50.660;13.226;2022-09-13T12:52:35;2.03;;;1.88;;
27223;SDS011;14965;50.660;13.226;2022-09-13T12:58:30;2.33;;;1.88;;
27223;SDS011;14965;50.660;13.226;2022-09-13T13:01:19;2.25;;;2.00;;
27223;SDS011;14965;50.660;13.226;2022-09-13T13:03:49;3.58;;;1.40;;
27223;SDS011;14965;50.660;13.226;2022-09-13T13:06:23;2.38;;;1.50;;
27223;SDS011;14965;50.660;13.226;2022-09-13T13:08:57;5.15;;;1.38;;
27223;SDS011;14965;50.660;13.226;2022-09-13T13:11:39;1.80;;;1.63;;
27223;SDS011;14965;50.660;13.226;2022-09-13T13:14:24;2.72;;;1.40;;
27223;SDS011;14965;50.660;13.226;2022-09-13T13:23:32;3.00;;;1.55;;
27223;SDS011;14965;50.660;13.226;2022-09-13T13:26:05;2.65;;;1.33;;
27223;SDS011;14965;50.660;13.226;2022-09-13T13:31:43;1.88;;;1.42;;
27223;SDS011;14965;50.660;13.226;2022-09-13T13:34:37;4.03;;;1.50;;
27223;SDS011;14965;50.660;13.226;2022-09-13T13:40:12;2.10;;;1.40;;
27223;SDS011;14965;50.660;13.226;2022-09-13T13:42:50;1.50;;;1.40;;
27223;SDS011;14965;50.660;13.226;2022-09-13T13:45:55;3.83;;;1.48;;
27223;SDS011;14965;50.660;13.226;2022-09-13T13:48:49;1.85;;;1.60;;
27223;SDS011;14965;50.660;13.226;2022-09-13T13:51:19;3.17;;;1.50;;
27223;SDS011;14965;50.660;13.226;2022-09-13T13:53:57;1.83;;;1.30;;
27223;SDS011;14965;50.660;13.226;2022-09-13T13:56:31;4.63;;;1.50;;
27223;SDS011;14965;50.660;13.226;2022-09-13T13:59:11;3.25;;;1.50;;
27223;SDS011;14965;50.660;13.226;2022-09-13T14:01:46;2.17;;;1.50;;
27223;SDS011;14965;50.660;13.226;2022-09-13T14:10:58;5.35;;;1.98;;
27223;SDS011;14965;50.660;13.226;2022-09-13T14:13:41;2.03;;;1.83;;
27223;SDS011;14965;50.660;13.226;2022-09-13T14:16:26;1.80;;;1.58;;
27223;SDS011;14965;50.660;13.226;2022-09-13T14:19:17;3.33;;;1.67;;
27223;SDS011;14965;50.660;13.226;2022-09-13T14:22:03;2.17;;;1.63;;
27223;SDS011;14965;50.660;13.226;2022-09-13T14:24:39;2.58;;;1.90;;
27223;SDS011;14965;50.660;13.226;2022-09-13T14:27:09;2.00;;;1.80;;
27223;SDS011;14965;50.660;13.226;2022-09-13T14:29:43;3.22;;;2.10;;
27223;SDS011;14965;50.660;13.226;2022-09-13T14:32:13;3.67;;;1.80;;
27223;SDS011;14965;50.660;13.226;2022-09-13T14:34:51;3.25;;;2.00;;
27223;SDS011;14965;50.660;13.226;2022-09-13T14:37:24;4.97;;;2.20;;
27223;SDS011;14965;50.660;13.226;2022-09-13T14:39:56;2.08;;;1.88;;
27223;SDS011;14965;50.660;13.226;2022-09-13T14:42:25;4.50;;;2.15;;
27223;SDS011;14965;50.660;13.226;2022-09-13T14:45:03;3.15;;;2.20;;
27223;SDS011;14965;50.660;13.226;2022-09-13T14:47:32;3.28;;;2.28;;
27223;SDS011;14965;50.660;13.226;2022-09-13T14:50:10;3.92;;;2.30;;
27223;SDS011;14965;50.660;13.226;2022-09-13T14:52:41;3.22;;;2.30;;
27223;SDS011;14965;50.660;13.226;2022-09-13T14:55:15;2.25;;;2.03;;
27223;SDS011;14965;50.660;13.226;2022-09-13T14:57:49;2.40;;;2.20;;
27223;SDS011;14965;50.660;13.226;2022-09-13T15:00:21;2.42;;;2.22;;
27223;SDS011;14965;50.660;13.226;2022-09-13T15:02:50;4.90;;;2.45;;
27223;SDS011;14965;50.660;13.226;2022-09-13T15:05:31;2.72;;;2.30;;
27223;SDS011;14965;50.660;13.226;2022-09-13T15:11:06;3.42;;;2.10;;
27223;SDS011;14965;50.660;13.226;2022-09-13T15:13:40;5.18;;;2.20;;
27223;SDS011;14965;50.660;13.226;2022-09-13T15:16:23;5.53;;;3.17;;
27223;SDS011;14965;50.660;13.226;2022-09-13T15:21:51;5.18;;;2.55;;
27223;SDS011;14965;50.660;13.226;2022-09-13T15:24:19;3.20;;;2.57;;
27223;SDS011;14965;50.660;13.226;2022-09-13T15:26:59;2.40;;;2.20;;
27223;SDS011;14965;50.660;13.226;2022-09-13T15:29:28;5.72;;;2.80;;
27223;SDS011;14965;50.660;13.226;2022-09-13T15:31:57;6.22;;;2.60;;
27223;SDS011;14965;50.660;13.226;2022-09-13T15:34:24;3.75;;;2.70;;
27223;SDS011;14965;50.660;13.226;2022-09-13T15:37:01;3.92;;;2.58;;
27223;SDS011;14965;50.660;13.226;2022-09-13T15:39:45;5.00;;;2.95;;
27223;SDS011;14965;50.660;13.226;2022-09-13T15:42:13;3.10;;;2.80;;
27223;SDS011;14965;50.660;13.226;2022-09-13T15:44:40;3.78;;;3.15;;
27223;SDS011;14965;50.660;13.226;2022-09-13T15:47:07;3.42;;;2.95;;
27223;SDS011;14965;50.660;13.226;2022-09-13T15:49:39;3.22;;;2.92;;
27223;SDS011;14965;50.660;13.226;2022-09-13T15:52:10;9.18;;;3.10;;
27223;SDS011;14965;50.660;13.226;2022-09-13T15:54:38;4.60;;;3.00;;
27223;SDS011;14965;50.660;13.226;2022-09-13T15:57:06;4.57;;;2.97;;
27223;SDS011;14965;50.660;13.226;2022-09-13T15:59:38;5.38;;;2.80;;